Terminal Aerodrome Forecast
Issued by NWS

Home | Current Version | Previous Version | Text Only | Print | Product List | Glossary On
Versions: 1 2 3 4 5 6 7 8 9 10 11 12 13 14 15
000
FTUS42 TJSJ 260500
TAFJSJ
TAF
TJSJ 260526Z 2606/2706 00000KT P6SM FEW020
     FM261430 07012KT P6SM FEW030 SCT050
     FM262330 10005KT P6SM SCT025=

USA.gov is the U.S. government's official web portal to all federal, state and local government web resources and services.